createdAt,value
2023-01-08T00:02:02.503Z,35.45
2023-01-08T00:08:05.240Z,29.75
2023-01-08T00:14:07.303Z,29.95
2023-01-08T00:20:09.814Z,28.63
2023-01-08T00:26:12.747Z,26.23
2023-01-08T00:32:15.082Z,27.58
2023-01-08T00:38:17.280Z,26.65
2023-01-08T00:44:19.333Z,25.60
2023-01-08T00:50:21.569Z,24.75
2023-01-08T00:56:23.637Z,24.65
2023-01-08T01:02:25.988Z,23.52
2023-01-08T01:08:28.270Z,22.85
2023-01-08T01:14:30.494Z,20.58
2023-01-08T01:20:33.678Z,19.17
2023-01-08T01:26:36.208Z,19.08
2023-01-08T01:38:44.897Z,20.05
2023-01-08T01:44:47.136Z,20.20
2023-01-08T01:50:52.064Z,17.75
2023-01-08T01:56:54.677Z,17.30
2023-01-08T02:02:57.346Z,18.95
2023-01-08T02:09:05.255Z,19.65
2023-01-08T02:15:19.074Z,17.02
2023-01-08T02:21:33.245Z,16.48
2023-01-08T02:27:37.588Z,15.82
2023-01-08T02:33:39.982Z,17.67
2023-01-08T02:40:19.645Z,16.75
2023-01-08T02:46:31.011Z,16.33
2023-01-08T02:52:37.042Z,17.80
2023-01-08T02:58:41.323Z,17.10
2023-01-08T03:04:54.614Z,16.55
2023-01-08T03:11:04.126Z,16.35
2023-01-08T03:17:18.617Z,15.55
2023-01-08T03:23:23.443Z,17.55
2023-01-08T03:29:27.105Z,15.52
2023-01-08T03:35:31.031Z,15.57
2023-01-08T03:41:34.691Z,15.57
2023-01-08T03:47:38.498Z,18.00
2023-01-08T03:53:40.777Z,15.00
2023-01-08T03:59:42.933Z,15.80
2023-01-08T04:05:45.293Z,17.02
2023-01-08T04:11:47.454Z,15.90
2023-01-08T04:17:49.691Z,16.17
2023-01-08T04:23:52.032Z,14.13
2023-01-08T04:35:56.083Z,16.38
2023-01-08T04:41:58.288Z,15.43
2023-01-08T04:48:00.710Z,16.80
2023-01-08T05:00:05.793Z,17.38
2023-01-08T05:06:08.395Z,15.70
2023-01-08T05:12:10.572Z,16.15
2023-01-08T05:18:12.791Z,18.33
2023-01-08T05:24:15.211Z,20.98
2023-01-08T05:36:19.855Z,21.52
2023-01-08T05:48:24.362Z,20.08
2023-01-08T05:54:26.601Z,18.80
2023-01-08T06:00:29.129Z,17.38
2023-01-08T06:12:33.451Z,19.02
2023-01-08T06:18:35.900Z,19.83
2023-01-08T06:30:40.332Z,20.40
2023-01-08T06:36:42.569Z,20.48
2023-01-08T06:42:46.677Z,19.77
2023-01-08T06:48:48.866Z,19.65
2023-01-08T06:54:51.333Z,24.70
2023-01-08T07:06:55.726Z,22.02
2023-01-08T07:12:58.342Z,23.35
2023-01-08T07:25:03.331Z,21.15
2023-01-08T07:31:07.154Z,20.63
2023-01-08T07:37:09.527Z,22.58
2023-01-08T07:43:13.142Z,19.70
2023-01-08T07:49:15.596Z,20.30
2023-01-08T07:55:17.969Z,19.73
2023-01-08T08:01:20.555Z,18.65
2023-01-08T08:07:22.736Z,22.65
2023-01-08T08:13:25.105Z,18.58
2023-01-08T08:19:27.475Z,19.30
2023-01-08T08:25:30.415Z,19.42
2023-01-08T08:31:32.822Z,18.60
2023-01-08T08:37:35.125Z,17.20
2023-01-08T08:43:37.282Z,22.70
2023-01-08T08:49:40.144Z,21.75
2023-01-08T08:55:42.521Z,21.65
2023-01-08T09:01:44.974Z,17.52
2023-01-08T09:07:47.152Z,19.27
2023-01-08T09:13:49.278Z,20.58
2023-01-08T09:19:51.685Z,19.25
2023-01-08T09:26:02.644Z,18.67
2023-01-08T09:32:07.605Z,17.25
2023-01-08T09:38:09.836Z,18.05
2023-01-08T09:44:16.581Z,19.65
2023-01-08T09:50:18.907Z,20.95
2023-01-08T09:56:21.498Z,20.08
2023-01-08T10:02:25.733Z,21.60
2023-01-08T10:08:28.028Z,20.02
2023-01-08T10:14:37.833Z,19.42
2023-01-08T10:20:40.055Z,19.30
2023-01-08T10:26:42.193Z,19.60
2023-01-08T10:32:56.365Z,21.27
2023-01-08T10:39:01.172Z,19.38
2023-01-08T10:45:07.895Z,19.67
2023-01-08T10:51:19.292Z,22.20
2023-01-08T10:57:22.935Z,20.50
2023-01-08T11:03:33.539Z,19.67
2023-01-08T11:09:42.256Z,19.63
2023-01-08T11:15:44.614Z,20.13
2023-01-08T11:22:00.905Z,18.80
2023-01-08T11:28:05.123Z,18.13
2023-01-08T11:34:14.416Z,19.95
2023-01-08T11:40:49.966Z,17.17
2023-01-08T11:46:58.772Z,17.35
2023-01-08T11:53:15.101Z,17.30
2023-01-08T11:59:30.255Z,17.75
2023-01-08T12:05:51.480Z,16.00
2023-01-08T12:12:37.170Z,16.08
2023-01-08T12:19:03.592Z,16.98
2023-01-08T12:25:34.423Z,19.65
2023-01-08T12:32:10.874Z,18.33
2023-01-08T12:38:21.738Z,18.38
2023-01-08T12:44:29.132Z,18.85
2023-01-08T12:51:00.535Z,17.13
2023-01-08T12:57:21.831Z,18.45
2023-01-08T13:03:27.543Z,21.10
2023-01-08T13:09:30.596Z,22.38
2023-01-08T13:15:34.094Z,19.85
2023-01-08T13:21:50.649Z,17.63
2023-01-08T13:27:53.046Z,20.02
2023-01-08T13:33:58.942Z,18.33
2023-01-08T13:40:00.978Z,20.25
2023-01-08T13:46:03.173Z,22.30
2023-01-08T13:52:05.882Z,18.67
2023-01-08T14:04:24.317Z,20.13
2023-01-08T14:10:28.802Z,18.40
2023-01-08T14:16:33.640Z,32.47
2023-01-08T14:22:36.398Z,20.30
2023-01-08T14:34:41.871Z,20.02
2023-01-08T14:41:03.118Z,27.80
2023-01-08T14:47:06.302Z,21.17
2023-01-08T14:53:15.373Z,23.63
2023-01-08T14:59:20.981Z,22.15
2023-01-08T15:05:31.996Z,55.78
2023-01-08T15:11:50.448Z,32.55
2023-01-08T15:17:52.887Z,23.33
2023-01-08T15:23:57.490Z,20.33
2023-01-08T15:30:04.437Z,17.23
2023-01-08T15:36:07.210Z,17.45
2023-01-08T15:42:47.164Z,18.42
2023-01-08T15:48:49.435Z,18.67
2023-01-08T15:54:51.740Z,21.17
2023-01-08T16:00:54.164Z,19.58
2023-01-08T16:13:00.813Z,20.30
2023-01-08T16:19:03.113Z,18.58
2023-01-08T16:25:05.958Z,17.98
2023-01-08T16:31:09.401Z,21.88
2023-01-08T16:37:11.861Z,20.55
2023-01-08T16:43:14.025Z,20.90
2023-01-08T16:49:16.782Z,20.98
2023-01-08T16:55:19.115Z,24.10
2023-01-08T17:01:21.522Z,21.48
2023-01-08T17:13:26.492Z,24.17
2023-01-08T17:25:31.471Z,27.02
2023-01-08T17:31:40.324Z,30.65
2023-01-08T17:37:42.600Z,29.25
2023-01-08T17:43:44.870Z,29.88
2023-01-08T17:49:57.167Z,30.02
2023-01-08T17:56:02.300Z,26.97
2023-01-08T18:02:04.828Z,28.60
2023-01-08T18:08:06.924Z,25.23
2023-01-08T18:14:12.385Z,26.07
2023-01-08T18:20:14.884Z,25.52
2023-01-08T18:26:18.782Z,26.13
2023-01-08T18:32:26.315Z,25.50
2023-01-08T18:38:28.532Z,24.20
2023-01-08T18:44:31.566Z,23.58
2023-01-08T18:50:34.203Z,21.98
2023-01-08T19:02:41.217Z,18.27
2023-01-08T19:08:45.064Z,20.15
2023-01-08T19:14:48.097Z,26.92
2023-01-08T19:20:50.913Z,23.38
2023-01-08T19:26:53.208Z,31.33
2023-01-08T19:32:55.776Z,24.35
2023-01-08T19:45:01.508Z,28.85
2023-01-08T19:51:08.773Z,20.83
2023-01-08T19:57:11.018Z,20.98
2023-01-08T20:03:13.912Z,21.02
2023-01-08T20:09:16.522Z,18.20
2023-01-08T20:15:19.776Z,19.00
2023-01-08T20:21:23.640Z,17.60
2023-01-08T20:27:26.080Z,17.77
2023-01-08T20:33:28.606Z,16.98
2023-01-08T20:39:30.616Z,17.10
2023-01-08T20:45:32.920Z,18.15
2023-01-08T20:51:42.368Z,17.67
2023-01-08T20:57:46.433Z,18.67
2023-01-08T21:03:51.320Z,15.45
2023-01-08T21:09:53.978Z,15.35
2023-01-08T21:22:25.200Z,14.73
2023-01-08T21:28:27.745Z,18.38
2023-01-08T21:34:29.984Z,14.90
2023-01-08T21:40:32.254Z,14.93
2023-01-08T21:46:34.640Z,16.95
2023-01-08T21:52:55.120Z,16.63
2023-01-08T21:58:57.187Z,17.23
2023-01-08T22:04:59.226Z,14.70
2023-01-08T22:11:02.298Z,14.95
2023-01-08T22:17:08.649Z,15.43
2023-01-08T22:23:10.804Z,16.85
2023-01-08T22:29:12.991Z,13.57
2023-01-08T22:35:15.061Z,15.32
2023-01-08T22:41:22.065Z,18.03
2023-01-08T22:47:24.353Z,14.40
2023-01-08T22:53:26.672Z,15.10
2023-01-08T22:59:28.965Z,16.08
2023-01-08T23:05:32.068Z,15.77
2023-01-08T23:11:34.430Z,16.23
2023-01-08T23:17:44.625Z,15.43
2023-01-08T23:23:53.984Z,15.60
2023-01-08T23:29:56.171Z,17.63
2023-01-08T23:35:58.457Z,15.73
2023-01-08T23:42:00.573Z,14.60
2023-01-08T23:48:02.907Z,16.30
2023-01-08T23:54:05.154Z,14.75
